createdAt,value
2022-11-10T00:02:13.705Z,14.90
2022-11-10T00:04:59.114Z,14.90
2022-11-10T00:07:44.596Z,15.00
2022-11-10T00:10:30.860Z,15.00
2022-11-10T00:13:15.830Z,14.90
2022-11-10T00:16:34.887Z,14.90
2022-11-10T00:19:20.478Z,14.90
2022-11-10T00:22:05.894Z,14.80
2022-11-10T00:24:51.409Z,14.90
2022-11-10T00:27:36.658Z,14.90
2022-11-10T00:30:22.166Z,14.80
2022-11-10T00:33:07.624Z,14.80
2022-11-10T00:35:53.027Z,14.90
2022-11-10T00:38:38.620Z,14.90
2022-11-10T00:41:23.856Z,14.70
2022-11-10T00:44:09.279Z,14.80
2022-11-10T00:46:54.568Z,14.70
2022-11-10T00:49:39.869Z,14.80
2022-11-10T00:52:25.217Z,14.90
2022-11-10T00:55:10.672Z,14.90
2022-11-10T00:57:56.009Z,15.00
2022-11-10T01:00:42.020Z,15.00
2022-11-10T01:03:27.325Z,14.90
2022-11-10T01:06:15.529Z,14.80
2022-11-10T01:09:00.831Z,14.90
2022-11-10T01:11:46.135Z,14.90
2022-11-10T01:14:31.508Z,14.80
2022-11-10T01:17:16.704Z,14.80
2022-11-10T01:20:02.227Z,14.70
2022-11-10T01:22:47.459Z,14.70
2022-11-10T01:25:32.965Z,14.70
2022-11-10T01:28:18.291Z,14.70
2022-11-10T01:31:09.314Z,14.50
2022-11-10T01:33:54.662Z,14.50
2022-11-10T01:36:40.021Z,14.60
2022-11-10T01:39:25.170Z,14.40
2022-11-10T01:42:10.595Z,14.50
2022-11-10T01:45:23.777Z,14.60
2022-11-10T01:48:14.723Z,14.40
2022-11-10T01:51:05.220Z,14.50
2022-11-10T01:53:56.162Z,14.50
2022-11-10T01:56:48.383Z,14.40
2022-11-10T01:59:40.008Z,14.60
2022-11-10T02:02:33.291Z,14.60
2022-11-10T02:05:20.258Z,14.60
2022-11-10T02:08:06.547Z,14.60
2022-11-10T02:10:51.929Z,14.70
2022-11-10T02:13:40.783Z,14.60
2022-11-10T02:16:26.225Z,14.60
2022-11-10T02:19:14.425Z,14.50
2022-11-10T02:21:59.813Z,14.50
2022-11-10T02:24:45.215Z,14.40
2022-11-10T02:27:30.853Z,14.50
2022-11-10T02:30:16.589Z,14.60
2022-11-10T02:33:03.599Z,14.60
2022-11-10T02:35:48.770Z,14.60
2022-11-10T02:38:34.144Z,14.60
2022-11-10T02:41:19.519Z,14.60
2022-11-10T02:44:06.530Z,14.60
2022-11-10T02:46:51.713Z,14.50
2022-11-10T02:49:37.127Z,14.50
2022-11-10T02:52:22.462Z,14.60
2022-11-10T02:55:08.108Z,14.50
2022-11-10T02:57:53.260Z,14.50
2022-11-10T03:00:38.582Z,14.50
2022-11-10T03:03:24.287Z,14.40
2022-11-10T03:06:09.904Z,14.40
2022-11-10T03:08:55.378Z,14.40
2022-11-10T03:11:40.797Z,14.30
2022-11-10T03:14:26.256Z,14.40
2022-11-10T03:17:11.750Z,14.40
2022-11-10T03:19:57.051Z,14.40
2022-11-10T03:22:42.515Z,14.40
2022-11-10T03:25:27.845Z,14.30
2022-11-10T03:28:13.603Z,14.20
2022-11-10T03:30:58.779Z,14.20
2022-11-10T03:33:44.147Z,14.30
2022-11-10T03:36:29.595Z,14.40
2022-11-10T03:39:14.913Z,14.40
2022-11-10T03:42:00.428Z,14.30
2022-11-10T03:44:45.994Z,14.30
2022-11-10T03:47:31.300Z,14.20
2022-11-10T03:50:17.411Z,14.20
2022-11-10T03:53:02.522Z,14.20
2022-11-10T03:55:47.748Z,14.30
2022-11-10T03:58:33.215Z,14.20
2022-11-10T04:01:18.672Z,14.20
2022-11-10T04:04:04.000Z,14.30
2022-11-10T04:07:07.871Z,14.30
2022-11-10T04:09:53.107Z,14.30
2022-11-10T04:12:57.170Z,14.30
2022-11-10T04:15:42.382Z,14.30
2022-11-10T04:18:29.504Z,14.30
2022-11-10T04:21:14.924Z,14.20
2022-11-10T04:23:59.929Z,14.30
2022-11-10T04:26:47.353Z,14.20
2022-11-10T04:29:32.831Z,14.30
2022-11-10T04:32:18.134Z,14.20
2022-11-10T04:35:03.618Z,14.30
2022-11-10T04:37:48.957Z,14.40
2022-11-10T04:40:34.379Z,14.30
2022-11-10T04:43:20.139Z,14.30
2022-11-10T04:46:07.731Z,14.30
2022-11-10T04:48:54.015Z,14.20
2022-11-10T04:51:39.762Z,14.10
2022-11-10T04:54:25.021Z,14.20
2022-11-10T04:57:10.379Z,14.10
2022-11-10T04:59:55.631Z,14.10
2022-11-10T05:02:40.992Z,14.20
2022-11-10T05:05:26.391Z,14.30
2022-11-10T05:08:12.174Z,14.30
2022-11-10T05:10:57.647Z,14.30
2022-11-10T05:13:43.873Z,14.10
2022-11-10T05:16:28.888Z,14.20
2022-11-10T05:19:14.056Z,14.20
2022-11-10T05:21:59.533Z,14.20
2022-11-10T05:24:44.905Z,14.30
2022-11-10T05:27:30.119Z,14.20
2022-11-10T05:30:15.883Z,14.10
2022-11-10T05:33:02.426Z,14.00
2022-11-10T05:35:49.847Z,14.10
2022-11-10T05:38:40.309Z,14.20
2022-11-10T05:41:27.495Z,14.30
2022-11-10T05:44:12.856Z,14.20
2022-11-10T05:46:58.230Z,14.10
2022-11-10T05:49:43.529Z,14.10
2022-11-10T05:52:28.906Z,14.10
2022-11-10T05:55:15.882Z,14.20
2022-11-10T05:58:00.864Z,14.20
2022-11-10T06:00:46.260Z,14.20
2022-11-10T06:03:31.668Z,14.10
2022-11-10T06:06:18.037Z,14.10
2022-11-10T06:09:03.515Z,14.10
2022-11-10T06:11:48.916Z,14.10
2022-11-10T06:14:34.353Z,14.10
2022-11-10T06:17:19.816Z,14.10
2022-11-10T06:20:05.758Z,14.20
2022-11-10T06:23:02.388Z,14.20
2022-11-10T06:25:47.524Z,14.10
2022-11-10T06:28:32.775Z,14.10
2022-11-10T06:31:18.192Z,14.10
2022-11-10T06:34:03.754Z,14.10
2022-11-10T06:36:49.063Z,14.00
2022-11-10T06:39:34.431Z,14.10
2022-11-10T06:42:19.801Z,14.10
2022-11-10T06:45:05.781Z,14.10
2022-11-10T06:48:06.419Z,14.20
2022-11-10T06:50:51.648Z,14.30
2022-11-10T06:53:36.897Z,14.10
2022-11-10T06:56:22.360Z,14.10
2022-11-10T06:59:07.657Z,13.90
2022-11-10T07:01:53.095Z,14.00
2022-11-10T07:04:38.389Z,14.00
2022-11-10T07:07:23.818Z,14.10
2022-11-10T07:10:09.349Z,14.10
2022-11-10T07:12:59.059Z,14.10
2022-11-10T07:15:44.602Z,13.90
2022-11-10T07:18:29.663Z,13.90
2022-11-10T07:21:15.233Z,14.00
2022-11-10T07:24:00.520Z,14.00
2022-11-10T07:26:45.912Z,14.00
2022-11-10T07:29:31.395Z,14.10
2022-11-10T07:32:16.585Z,14.00
2022-11-10T07:35:01.989Z,14.10
2022-11-10T07:37:47.210Z,14.10
2022-11-10T07:40:33.312Z,14.10
2022-11-10T07:43:20.752Z,14.00
2022-11-10T07:46:06.126Z,13.90
2022-11-10T07:48:51.493Z,14.00
2022-11-10T07:51:36.917Z,14.00
2022-11-10T07:54:22.324Z,14.10
2022-11-10T07:57:07.695Z,14.20
2022-11-10T07:59:57.803Z,14.10
2022-11-10T08:02:43.286Z,14.10
2022-11-10T08:05:28.628Z,14.00
2022-11-10T08:08:14.129Z,14.00
2022-11-10T08:10:59.639Z,13.90
2022-11-10T08:13:44.989Z,13.90
2022-11-10T08:16:30.260Z,13.90
2022-11-10T08:19:15.830Z,14.00
2022-11-10T08:22:01.169Z,14.10
2022-11-10T08:24:46.541Z,14.10
2022-11-10T08:27:31.897Z,14.10
2022-11-10T08:30:17.434Z,14.10
2022-11-10T08:33:04.901Z,14.00
2022-11-10T08:35:51.597Z,14.00
2022-11-10T08:38:37.032Z,14.10
2022-11-10T08:41:22.495Z,14.20
2022-11-10T08:44:10.879Z,14.10
2022-11-10T08:46:56.292Z,14.20
2022-11-10T08:49:41.758Z,14.20
2022-11-10T08:52:27.558Z,14.20
2022-11-10T08:55:13.009Z,14.30
2022-11-10T08:58:00.652Z,14.20
2022-11-10T09:00:46.369Z,14.20
2022-11-10T09:03:31.607Z,14.20
2022-11-10T09:06:16.926Z,14.20
2022-11-10T09:09:02.460Z,14.10
2022-11-10T09:11:47.700Z,14.20
2022-11-10T09:14:33.311Z,14.20
2022-11-10T09:17:18.273Z,14.10
2022-11-10T09:20:04.472Z,14.20
2022-11-10T09:22:49.758Z,14.30
2022-11-10T09:25:35.205Z,14.20
2022-11-10T09:28:21.244Z,14.20
2022-11-10T09:31:06.833Z,14.30
2022-11-10T09:33:52.134Z,14.30
2022-11-10T09:36:40.147Z,14.40
2022-11-10T09:39:25.547Z,14.20
2022-11-10T09:42:37.107Z,14.20
2022-11-10T09:45:39.700Z,14.20
2022-11-10T09:48:32.817Z,14.30
2022-11-10T09:51:26.247Z,14.40
2022-11-10T09:54:56.551Z,14.40
2022-11-10T09:57:48.689Z,14.40
2022-11-10T10:00:35.882Z,14.30
2022-11-10T10:03:28.176Z,14.30
2022-11-10T10:06:15.095Z,14.50
2022-11-10T10:09:24.380Z,14.40
2022-11-10T10:12:47.512Z,14.40
2022-11-10T10:15:49.065Z,14.60
2022-11-10T10:19:02.386Z,14.60
2022-11-10T10:22:27.642Z,14.70
2022-11-10T10:25:27.575Z,14.70
2022-11-10T10:28:19.139Z,14.80
2022-11-10T10:31:16.883Z,14.80
2022-11-10T10:34:02.689Z,14.80
2022-11-10T10:36:48.047Z,14.70
2022-11-10T10:39:42.968Z,14.70
2022-11-10T10:42:31.277Z,14.70
2022-11-10T10:45:23.525Z,14.70
2022-11-10T10:48:27.497Z,14.80
2022-11-10T10:51:28.641Z,14.70
2022-11-10T10:54:25.672Z,14.70
2022-11-10T10:57:29.326Z,14.80
2022-11-10T11:00:24.663Z,14.90
2022-11-10T11:03:38.744Z,14.80
2022-11-10T11:06:28.956Z,14.70
2022-11-10T11:09:26.227Z,14.80
2022-11-10T11:12:15.812Z,14.70
2022-11-10T11:15:21.765Z,14.70
2022-11-10T11:18:15.041Z,14.70
2022-11-10T11:21:25.156Z,14.70
2022-11-10T11:24:15.950Z,14.80
2022-11-10T11:27:04.223Z,14.90
2022-11-10T11:30:03.406Z,15.00
2022-11-10T11:32:57.749Z,14.80
2022-11-10T11:35:58.134Z,14.70
2022-11-10T11:39:12.270Z,14.90
2022-11-10T11:42:25.350Z,14.90
2022-11-10T11:45:44.022Z,14.90
2022-11-10T11:48:41.539Z,14.80
2022-11-10T11:51:50.470Z,14.90
2022-11-10T11:54:48.199Z,14.90
2022-11-10T11:57:55.101Z,14.80
2022-11-10T12:01:08.463Z,14.80
2022-11-10T12:04:15.260Z,14.90
2022-11-10T12:07:42.982Z,14.90
2022-11-10T12:10:50.363Z,15.00
2022-11-10T12:13:49.304Z,15.00
2022-11-10T12:16:35.328Z,15.00
2022-11-10T12:19:38.111Z,15.10
2022-11-10T12:22:47.777Z,15.10
2022-11-10T12:26:09.206Z,14.90
2022-11-10T12:29:04.924Z,14.90
2022-11-10T12:31:55.024Z,15.00
2022-11-10T12:34:44.002Z,15.00
2022-11-10T12:37:38.276Z,15.00
2022-11-10T12:40:31.158Z,15.10
2022-11-10T12:43:25.991Z,15.10
2022-11-10T12:46:12.798Z,15.10
2022-11-10T12:49:28.451Z,15.10
2022-11-10T12:52:32.905Z,15.20
2022-11-10T12:55:24.928Z,15.30
2022-11-10T12:58:13.813Z,15.30
2022-11-10T13:01:07.185Z,15.30
2022-11-10T13:03:58.427Z,15.30
2022-11-10T13:06:55.735Z,15.30
2022-11-10T13:09:44.564Z,15.30
2022-11-10T13:12:29.933Z,15.30
2022-11-10T13:15:39.933Z,15.40
2022-11-10T13:18:31.019Z,15.40
2022-11-10T13:21:16.400Z,15.40
2022-11-10T13:24:02.496Z,15.30
2022-11-10T13:26:49.875Z,15.30
2022-11-10T13:29:46.862Z,15.40
2022-11-10T13:32:33.838Z,15.30
2022-11-10T13:35:28.277Z,15.30
2022-11-10T13:38:44.111Z,15.40
2022-11-10T13:41:33.909Z,15.40
2022-11-10T13:44:32.364Z,15.40
2022-11-10T13:47:46.320Z,15.40
2022-11-10T13:50:35.696Z,15.40
2022-11-10T13:53:50.684Z,15.40
2022-11-10T13:56:57.684Z,15.40
2022-11-10T13:59:55.275Z,15.40
2022-11-10T14:02:53.223Z,15.40
2022-11-10T14:05:38.475Z,15.40
2022-11-10T14:08:28.547Z,15.40
2022-11-10T14:11:22.151Z,15.40
2022-11-10T14:14:47.541Z,15.40
2022-11-10T14:17:39.355Z,15.50
2022-11-10T14:20:27.384Z,15.40
2022-11-10T14:23:29.270Z,15.40
2022-11-10T14:26:38.532Z,15.40
2022-11-10T14:29:31.693Z,15.40
2022-11-10T14:32:27.565Z,15.40
2022-11-10T14:35:23.093Z,15.40
2022-11-10T14:38:22.006Z,15.40
2022-11-10T14:41:24.626Z,15.40
2022-11-10T14:44:19.709Z,15.40
2022-11-10T14:47:27.064Z,15.40
2022-11-10T14:50:15.943Z,15.40
2022-11-10T14:53:17.945Z,15.40
2022-11-10T14:56:06.307Z,15.50
2022-11-10T14:58:52.113Z,15.50
2022-11-10T15:01:40.596Z,15.50
2022-11-10T15:04:30.043Z,15.50
2022-11-10T15:07:15.403Z,15.50
2022-11-10T15:10:16.559Z,15.50
2022-11-10T15:13:12.818Z,15.50
2022-11-10T15:16:20.988Z,15.40
2022-11-10T15:19:29.238Z,15.40
2022-11-10T15:22:18.952Z,15.40
2022-11-10T15:25:16.544Z,15.50
2022-11-10T15:28:21.719Z,15.50
2022-11-10T15:31:12.285Z,15.60
2022-11-10T15:33:59.928Z,15.50
2022-11-10T15:36:45.342Z,15.60
2022-11-10T15:39:30.817Z,15.50
2022-11-10T15:42:21.975Z,15.50
2022-11-10T15:45:07.608Z,15.50
2022-11-10T15:47:53.296Z,15.50
2022-11-10T15:50:38.745Z,15.50
2022-11-10T15:53:33.202Z,15.50
2022-11-10T15:56:21.119Z,15.50
2022-11-10T15:59:06.679Z,15.60
2022-11-10T16:01:52.163Z,15.60
2022-11-10T16:04:37.720Z,15.60
2022-11-10T16:07:23.527Z,15.60
2022-11-10T16:10:08.954Z,15.50
2022-11-10T16:12:55.052Z,15.50
2022-11-10T16:15:40.583Z,15.60
2022-11-10T16:18:29.185Z,15.50
2022-11-10T16:21:19.894Z,15.50
2022-11-10T16:24:05.220Z,15.50
2022-11-10T16:26:50.439Z,15.50
2022-11-10T16:29:36.450Z,15.50
2022-11-10T16:32:21.761Z,15.60
2022-11-10T16:35:12.805Z,15.60
2022-11-10T16:37:58.344Z,15.60
2022-11-10T16:40:44.003Z,15.60
2022-11-10T16:43:30.777Z,15.60
2022-11-10T16:46:19.916Z,15.50
2022-11-10T16:49:10.084Z,15.50
2022-11-10T16:51:55.181Z,15.50
2022-11-10T16:54:40.740Z,15.50
2022-11-10T16:57:26.252Z,15.50
2022-11-10T17:00:12.082Z,15.60
2022-11-10T17:03:11.190Z,15.50
2022-11-10T17:05:56.387Z,15.60
2022-11-10T17:08:43.386Z,15.60
2022-11-10T17:11:28.416Z,15.60
2022-11-10T17:14:14.333Z,15.60
2022-11-10T17:16:59.462Z,15.60
2022-11-10T17:19:46.422Z,15.60
2022-11-10T17:22:34.492Z,15.60
2022-11-10T17:25:28.732Z,15.60
2022-11-10T17:28:16.775Z,15.60
2022-11-10T17:31:03.161Z,15.60
2022-11-10T17:33:49.626Z,15.40
2022-11-10T17:41:01.592Z,15.40
2022-11-10T17:43:57.620Z,15.40
2022-11-10T17:50:50.997Z,15.40
2022-11-10T17:57:13.148Z,15.40
2022-11-10T18:00:08.128Z,15.40
2022-11-10T18:02:55.517Z,15.30
2022-11-10T18:05:42.351Z,15.30
2022-11-10T18:08:28.010Z,15.30
2022-11-10T19:04:53.792Z,15.30
2022-11-10T19:08:21.527Z,15.30
2022-11-10T19:11:49.358Z,15.30
2022-11-10T19:15:12.517Z,15.30
2022-11-10T19:22:27.846Z,15.20
2022-11-10T19:32:11.210Z,15.20
2022-11-10T19:35:34.095Z,15.30
2022-11-10T19:38:41.532Z,15.20
2022-11-10T19:42:06.774Z,15.30
2022-11-10T19:45:36.902Z,15.30
2022-11-10T19:51:55.664Z,15.30
2022-11-10T19:55:03.796Z,15.20
2022-11-10T19:58:09.843Z,15.30
2022-11-10T20:04:29.448Z,15.20
2022-11-10T20:07:44.027Z,15.30
2022-11-10T20:20:43.203Z,15.20
2022-11-10T20:30:57.914Z,15.30
2022-11-10T20:34:42.498Z,15.30
2022-11-10T20:37:32.746Z,15.30
2022-11-10T20:40:42.910Z,15.30
2022-11-10T20:43:23.324Z,15.30
2022-11-10T20:46:16.114Z,15.30
2022-11-10T20:49:07.691Z,15.20
2022-11-10T20:51:53.052Z,15.10
2022-11-10T20:54:38.629Z,15.20
2022-11-10T20:57:23.983Z,15.30
2022-11-10T21:00:10.079Z,15.20
2022-11-10T21:02:55.430Z,15.10
2022-11-10T21:05:40.834Z,15.20
2022-11-10T21:08:26.954Z,15.20
2022-11-10T21:11:32.620Z,15.20
2022-11-10T21:14:18.534Z,15.20
2022-11-10T21:17:03.863Z,15.20
2022-11-10T21:19:49.349Z,15.20
2022-11-10T21:22:34.840Z,15.00
2022-11-10T21:25:16.404Z,15.00
2022-11-10T21:28:02.725Z,15.10
2022-11-10T21:30:47.776Z,15.10
2022-11-10T21:33:33.384Z,15.00
2022-11-10T21:36:18.818Z,15.10
2022-11-10T21:39:09.338Z,15.00
2022-11-10T21:41:56.886Z,15.00
2022-11-10T21:44:42.313Z,14.90
2022-11-10T21:47:46.941Z,14.90
2022-11-10T21:50:32.274Z,14.90
2022-11-10T21:53:18.795Z,14.90
2022-11-10T21:56:06.668Z,15.00
2022-11-10T21:58:52.074Z,15.10
2022-11-10T22:01:37.667Z,15.00
2022-11-10T22:04:23.056Z,15.00
2022-11-10T22:07:24.002Z,15.10
2022-11-10T22:10:42.849Z,15.10
2022-11-10T22:13:46.947Z,15.10
2022-11-10T22:17:06.052Z,15.00
2022-11-10T22:19:51.607Z,15.00
2022-11-10T22:22:40.204Z,15.00
2022-11-10T22:25:25.583Z,14.90
2022-11-10T22:28:11.061Z,14.90
2022-11-10T22:30:56.372Z,14.80
2022-11-10T22:33:42.971Z,14.90
2022-11-10T22:36:28.170Z,14.90
2022-11-10T22:39:13.423Z,14.90
2022-11-10T22:42:17.722Z,14.90
2022-11-10T22:45:05.641Z,14.90
2022-11-10T22:48:11.979Z,14.90
2022-11-10T22:50:58.925Z,14.90
2022-11-10T22:53:46.382Z,14.90
2022-11-10T22:56:33.459Z,14.90
2022-11-10T22:59:19.393Z,14.90
2022-11-10T23:02:09.894Z,14.80
2022-11-10T23:04:57.879Z,14.80
2022-11-10T23:07:43.000Z,14.70
2022-11-10T23:10:37.928Z,14.80
2022-11-10T23:13:23.550Z,14.80
2022-11-10T23:16:11.263Z,14.80
2022-11-10T23:18:58.175Z,14.80
2022-11-10T23:21:45.886Z,14.70
2022-11-10T23:24:31.336Z,14.80
2022-11-10T23:27:16.777Z,14.80
2022-11-10T23:30:04.780Z,14.80
2022-11-10T23:32:54.655Z,14.80
2022-11-10T23:35:39.760Z,14.80
2022-11-10T23:38:26.034Z,14.70
2022-11-10T23:41:14.477Z,14.90
2022-11-10T23:44:00.102Z,14.90
2022-11-10T23:46:45.460Z,14.70
2022-11-10T23:49:30.855Z,14.60
2022-11-10T23:52:16.462Z,14.70
2022-11-10T23:55:01.730Z,14.70
2022-11-10T23:57:46.977Z,14.60
